Aérodrome :
LOGIN :

S'inscrire | Disclaimer

   EN    FR    IT 

 










Légende :    VFR   VFR Marginal   IFR   IFR Intensif   IFR Très Intensif
Visi : 
Plafond : 
>= 8 km
>= 3000ft
5 à 8 km
1000 à 3000 ft
1500m à 5 km
500 à 1000 ft
800 à 1500m
200 à 500 ft
< 800m
< 200 ft
Symboles :   Orages  Brouillard  Fortes neiges  Fortes précipitations  Vent > 20 kt
SIGMETs :   Divers  Orages  Givrage  Turbulence  Onde Orograph.  Cendres Volcan.







- Altitude de l'aérodrome : 1090 ft
- Code IATA : CFE
- Voir les cartes d'approche


LFLC - Clermont-Ferrand Auvergne

DERNIER METAR :
  • 192100Z AUTO 15002KT CAVOK 15/10 Q1024 NOSIG

METARs EXPIRÉS :
  • 192030Z AUTO VRB01KT CAVOK 16/10 Q1024 NOSIG
  • 192000Z AUTO 00000KT CAVOK 17/10 Q1024 NOSIG
  • 191930Z AUTO VRB02KT CAVOK 20/10 Q1023 NOSIG
  • 191900Z AUTO 34003KT CAVOK 22/10 Q1023 NOSIG
  • 191830Z AUTO 36004KT 340V070 CAVOK 21/11 Q1023 NOSIG
  • 191800Z AUTO 01006KT CAVOK 23/11 Q1023 NOSIG

TAF TAF LFLC
Valide du 19 à 21h jusqu'au 20 à 21h UTC


192000Z 1921/2021 VRB04KT CAVOK
BECMG 2009/2011 04008KT
ATIS : +33 4 73 62 74 38
Pas de NOTAMs connus pour ce terrain.



MET'MAP, la Météo Aéronautique d'un coup d'oeil ! - Copyright ORBIFLY Décembre 2007 - Disclaimer

ORBIFLY MET'MAP TEAM :

Programmation & Développement : Alexandra Zaïnal
Conception & Développement : Baudouin d'Aumeries
Co-Programmation & Développement : Marc-Olivier Méhu
Soutien technique & logistique : Manuel Goepfert

Contact : metmap@orbifly.com




SOURCES & CREDITS :

   NOAA